Lafayette, TN (37083)

7:47 AM CST on February 09, 2016 (GMT -0600)
KTNLAFAY2 | | Change Station
CLOSE
Current Station
Personal Weather Station
Location: Lafayette, TN
Elevation: 922 ft
Nearby Weather Stations
Active Advisory: Winter Weather Advisory

Elev 922 ft 36.57 °N, 86.06 °W | Updated 8 seconds ago

Overcast
Overcast
21.1 °F
Feels Like 21 °F
N
1.6
Wind Variable Wind from NW
Gusts 4.5 mph

Today
High -- | Low -- °F
--% Chance of Precip.
Yesterday
High -- | Low -- °F
Precip. -- in
Pressure 29.86 in
Visibility 10.0 miles
Clouds Scattered Clouds 2000 ft
Overcast 4300 ft
Windchill 21 °F
Dew Point 16 °F
Humidity 82%
Rainfall 0.00 in
Snow Depth Not available.
6:38 AM 5:18 PM
New Moon, 1% visible
METAR KGLW 091330Z AUTO 28009KT 10SM SCT020 OVC043 M06/M09 A2986 RMK AO2 T10601090
Pressure 29.86 in
Visibility 10.0 miles
Clouds Scattered Clouds 2000 ft
Overcast 4300 ft
Windchill 21 °F
Dew Point 16 °F
Humidity 82%
Rainfall 0.00 in
Snow Depth Not available.
6:38 AM 5:18 PM
New Moon, 1% visible
METAR KGLW 091330Z AUTO 28009KT 10SM SCT020 OVC043 M06/M09 A2986 RMK AO2 T10601090

10-Day Weather Forecast

Almanac

Astronomy

Feb. 09, 2016 Rise Set
Actual Time
Civil Twilight
Nautical Twilight
Astronomical Twilight
Moon
Length of Visible Light
Length of Day
Tomorrow will be .
, % of the Moon is Illuminated

Today's Extremes

State Highs State Lows

Community

WunderPhotos

Upload Photos

1,891,591 photos uploaded!

WunderBlog® & News

Nearby

Air Quality

  Air Quality AQ Index Pollutant
Not available.

Snow Depth

Station Depth Elevation

Earthquake Activity

City Distance Mag. Time & Date
Minimum magnitude displayed is 2.5.

Coastal Water Temperatures

Place Temperature

Stations

Nearby Weather Stations

Station Location Temp. Windchill Dew Point Humidity Wind Precip. Elev Updated Type
                   

Watches & Warnings

Winter Weather Advisory
Issued: 1:34 AM CST Feb. 9, 2016 – National Weather Service

... Winter Weather Advisory remains in effect until 6 am CST
Wednesday...

* timing... until 6 am CST Wednesday.

* Main impact... hazardous travel conditions across the area due
to snowfall as well as patchy ice on roadways.

* Total snow accumulations... 1 to 2 inches with locally higher
amounts around 3 inches possible.

Precautionary/preparedness actions...

A Winter Weather Advisory for snow means that periods of snow
will cause primarily travel difficulties. Be prepared for snow
covered roads and limited visibilities... and use caution while
driving.


31